Time;durP1;ratioP1;P1;durP2;ratioP2;P2;SDS_P1;SDS_P2;PMS_P1;PMS_P2;Temp;Humidity;BMP_temperature;BMP_pressure;BME280_temperature;BME280_humidity;BME280_pressure;Samples;Min_cycle;Max_cycle;Signal;HPM_P1;HPM_P2
2022/05/07 00:00:56;;;;;;;12.23;11.20;;;;;;;11.52;100.00;97556.06;5045640;28;20751;-56
2022/05/07 00:03:24;;;;;;;12.90;11.77;;;;;;;11.46;100.00;97559.47;5026769;28;20269;-55
2022/05/07 00:05:54;;;;;;;12.93;11.87;;;;;;;11.41;100.00;97556.53;5030920;28;20325;-56
2022/05/07 00:08:22;;;;;;;14.37;13.20;;;;;;;11.40;100.00;97560.19;5036310;28;20286;-53
2022/05/07 00:10:50;;;;;;;13.53;12.43;;;;;;;11.29;100.00;97551.66;5036258;28;20324;-52
2022/05/07 00:13:18;;;;;;;12.70;11.60;;;;;;;11.24;100.00;97555.84;4997805;28;20886;-54
2022/05/07 00:18:30;;;;;;;13.87;12.67;;;;;;;11.13;100.00;97546.47;5024030;28;20202;-48
2022/05/07 00:20:59;;;;;;;15.57;14.37;;;;;;;11.09;100.00;97545.19;5031954;28;20778;-58
2022/05/07 00:23:28;;;;;;;16.17;14.60;;;;;;;11.03;100.00;97540.59;5038556;28;20230;-57
2022/05/07 00:25:56;;;;;;;15.00;13.50;;;;;;;10.95;100.00;97539.66;5041694;28;20242;-57
2022/05/07 00:28:24;;;;;;;14.50;13.30;;;;;;;10.87;100.00;97539.75;5002752;28;20356;-52
2022/05/07 00:30:52;;;;;;;13.93;12.73;;;;;;;10.81;100.00;97540.44;5038775;28;21027;-56
2022/05/07 00:33:20;;;;;;;13.47;12.47;;;;;;;10.77;100.00;97539.13;5036577;28;20857;-56
2022/05/07 00:35:48;;;;;;;13.97;12.93;;;;;;;10.74;100.00;97531.53;5017250;28;20692;-56
2022/05/07 00:38:43;;;;;;;15.00;13.80;;;;;;;10.69;100.00;97535.53;5025099;28;20609;-56
2022/05/07 00:41:11;;;;;;;14.00;12.90;;;;;;;10.69;100.00;97532.88;5035972;28;20319;-58
2022/05/07 00:43:41;;;;;;;14.40;13.30;;;;;;;10.62;100.00;97534.59;5007043;28;20216;-57
2022/05/07 00:46:09;;;;;;;14.40;13.17;;;;;;;10.55;100.00;97533.66;5037078;28;20244;-55
2022/05/07 00:48:38;;;;;;;14.53;13.33;;;;;;;10.46;100.00;97527.56;5040633;28;20213;-54
2022/05/07 00:53:54;;;;;;;14.80;13.30;;;;;;;10.33;100.00;97528.09;5039240;28;20202;-55
2022/05/07 00:56:23;;;;;;;14.23;13.03;;;;;;;10.27;100.00;97524.34;5036301;28;20203;-56
2022/05/07 00:58:52;;;;;;;14.70;13.50;;;;;;;10.21;100.00;97519.72;5001599;28;20271;-55
2022/05/07 01:01:20;;;;;;;14.13;13.03;;;;;;;10.18;100.00;97527.19;5036075;28;20330;-55
2022/05/07 01:03:49;;;;;;;14.97;13.77;;;;;;;10.10;100.00;97531.53;5037469;28;20294;-52
2022/05/07 01:06:18;;;;;;;15.60;14.27;;;;;;;10.12;100.00;97526.06;5021691;28;20544;-53
2022/05/07 01:08:47;;;;;;;16.13;14.73;;;;;;;10.09;100.00;97526.41;5031685;28;20292;-54
2022/05/07 01:11:18;;;;;;;15.47;14.27;;;;;;;10.06;100.00;97519.66;5041217;28;20769;-55
2022/05/07 01:13:47;;;;;;;15.83;14.53;;;;;;;9.98;100.00;97519.66;5041814;28;20208;-55
2022/05/07 01:16:15;;;;;;;15.70;14.17;;;;;;;9.95;100.00;97518.19;4998572;28;20329;-56
2022/05/07 01:18:44;;;;;;;15.10;13.80;;;;;;;9.92;100.00;97517.72;5044432;28;20860;-54
2022/05/07 01:21:14;;;;;;;16.13;14.73;;;;;;;9.86;100.00;97513.94;4995115;28;20459;-55
2022/05/07 01:23:43;;;;;;;16.03;14.70;;;;;;;9.83;100.00;97511.63;5027157;28;20418;-56
2022/05/07 01:26:12;;;;;;;15.87;14.40;;;;;;;9.81;100.00;97505.66;5037482;28;20314;-59
2022/05/07 01:28:40;;;;;;;16.30;14.97;;;;;;;9.74;100.00;97499.41;5038311;28;20528;-57
2022/05/07 01:31:08;;;;;;;14.07;12.97;;;;;;;9.74;100.00;97504.72;5001574;28;20235;-54
2022/05/07 01:33:38;;;;;;;16.10;14.80;;;;;;;9.78;100.00;97501.56;5019686;28;20211;-55
2022/05/07 01:36:11;;;;;;;15.77;14.23;;;;;;;9.70;100.00;97501.59;5041809;28;20203;-55
2022/05/07 01:38:40;;;;;;;17.20;15.40;;;;;;;9.59;100.00;97497.47;5014517;28;20413;-54
2022/05/07 01:41:08;;;;;;;16.30;14.87;;;;;;;9.58;100.00;97505.56;5021658;28;20383;-57
2022/05/07 01:43:36;;;;;;;16.43;14.87;;;;;;;9.54;100.00;97502.47;5038238;28;20339;-55
2022/05/07 01:48:09;;;;;;;15.47;14.17;;;;;;;9.45;100.00;97500.81;5005070;28;20762;-52
2022/05/07 01:48:52;;;;;;;18.17;16.47;;;;;;;9.36;100.00;97503.47;5043673;28;20214;-53
2022/05/07 01:51:20;;;;;;;26.17;22.53;;;;;;;9.31;100.00;97500.50;5025374;28;20980;-57
2022/05/07 01:53:49;;;;;;;22.00;19.80;;;;;;;9.25;100.00;97503.84;5025604;28;20211;-57
2022/05/07 01:56:17;;;;;;;19.60;17.90;;;;;;;9.20;100.00;97499.03;5041442;28;20202;-55
2022/05/07 01:58:48;;;;;;;18.20;16.23;;;;;;;9.19;100.00;97501.88;5040487;28;20294;-58
2022/05/07 02:01:16;;;;;;;16.57;15.17;;;;;;;9.16;100.00;97497.72;5001689;28;20746;-58
2022/05/07 02:03:44;;;;;;;16.97;15.40;;;;;;;9.14;100.00;97501.53;5011140;28;20355;-55
2022/05/07 02:06:12;;;;;;;16.07;14.57;;;;;;;9.09;100.00;97497.59;5032212;28;20435;-59
2022/05/07 02:08:40;;;;;;;17.03;15.47;;;;;;;9.09;100.00;97497.59;5018339;28;20402;-58
2022/05/07 02:11:10;;;;;;;14.97;13.77;;;;;;;9.05;100.00;97493.59;5029242;28;20237;-59
2022/05/07 02:13:38;;;;;;;17.30;14.83;;;;;;;9.01;100.00;97494.13;5038444;28;20203;-56
2022/05/07 02:16:06;;;;;;;17.63;16.07;;;;;;;9.01;100.00;97492.28;5031427;28;20204;-61
2022/05/07 02:18:34;;;;;;;15.93;14.60;;;;;;;9.03;100.00;97497.41;5015793;28;20512;-58
2022/05/07 02:21:02;;;;;;;15.33;14.03;;;;;;;9.04;100.00;97499.88;5039287;28;20219;-56
2022/05/07 02:23:30;;;;;;;17.73;16.23;;;;;;;8.97;100.00;97489.16;5010507;28;20219;-55
2022/05/07 02:26:00;;;;;;;15.67;14.37;;;;;;;8.98;100.00;97492.63;5026289;28;20313;-58
2022/05/07 02:28:29;;;;;;;15.37;14.00;;;;;;;8.95;100.00;97495.59;5038921;28;20211;-57
2022/05/07 02:30:57;;;;;;;16.57;15.17;;;;;;;8.92;100.00;97501.22;5039791;28;20630;-58
2022/05/07 02:33:25;;;;;;;17.20;15.80;;;;;;;8.89;100.00;97499.72;4998763;28;20779;-53
2022/05/07 02:35:53;;;;;;;17.73;16.10;;;;;;;8.87;100.00;97496.41;5045811;28;20242;-54
2022/05/07 02:38:21;;;;;;;17.20;15.60;;;;;;;8.90;100.00;97497.91;5018041;28;20211;-58
2022/05/07 02:43:37;;;;;;;16.27;14.97;;;;;;;8.86;100.00;97497.41;5042144;28;20203;-56
2022/05/07 02:46:06;;;;;;;15.63;14.23;;;;;;;8.87;100.00;97495.59;5049971;28;20649;-56
2022/05/07 02:48:36;;;;;;;16.27;14.80;;;;;;;8.90;100.00;97504.03;4999266;28;20960;-52
2022/05/07 02:51:04;;;;;;;17.47;15.80;;;;;;;8.85;100.00;97498.41;5033803;28;20228;-57
2022/05/07 02:53:32;;;;;;;16.40;15.00;;;;;;;8.81;100.00;97495.28;5031727;28;20710;-59
2022/05/07 02:56:00;;;;;;;16.13;14.70;;;;;;;8.80;100.00;97490.97;5002504;28;20211;-59
2022/05/07 02:58:28;;;;;;;16.90;15.33;;;;;;;8.91;100.00;97496.94;5043787;28;20199;-56
2022/05/07 03:00:58;;;;;;;14.13;13.00;;;;;;;8.85;100.00;97487.81;5046605;28;20234;-59
2022/05/07 03:03:26;;;;;;;16.03;14.73;;;;;;;8.80;100.00;97490.97;5006250;28;20239;-56
2022/05/07 03:05:55;;;;;;;16.30;14.77;;;;;;;8.75;100.00;97490.66;5042217;28;20759;-54
2022/05/07 03:08:24;;;;;;;15.37;14.17;;;;;;;8.77;100.00;97495.75;5029684;28;20361;-60
2022/05/07 03:10:52;;;;;;;15.57;14.13;;;;;;;8.81;100.00;97492.63;5024775;28;20226;-57
2022/05/07 03:13:20;;;;;;;16.90;15.10;;;;;;;8.76;100.00;97494.09;5028871;28;21161;-57
2022/05/07 03:15:48;;;;;;;15.53;14.33;;;;;;;8.82;100.00;97490.81;5042863;28;20686;-58
2022/05/07 03:18:17;;;;;;;14.57;13.27;;;;;;;8.83;100.00;97489.81;5006533;28;20210;-59
2022/05/07 03:20:45;;;;;;;15.20;13.90;;;;;;;8.77;100.00;97487.84;5042043;28;20429;-55
2022/05/07 03:23:13;;;;;;;15.87;14.40;;;;;;;8.79;100.00;97488.50;5024988;28;20585;-59
2022/05/07 03:25:41;;;;;;;15.57;14.27;;;;;;;8.77;100.00;97488.69;5014106;28;20480;-57
2022/05/07 03:28:10;;;;;;;15.67;14.33;;;;;;;8.75;100.00;97479.25;5027269;28;20967;-59
2022/05/07 03:30:38;;;;;;;16.67;15.37;;;;;;;8.74;100.00;97480.25;5039183;28;20499;-56
2022/05/07 03:33:07;;;;;;;15.83;14.40;;;;;;;8.79;100.00;97483.22;5034966;28;20223;-59
2022/05/07 03:35:37;;;;;;;15.47;14.30;;;;;;;8.73;100.00;97481.22;5018854;28;20218;-59
2022/05/07 03:38:05;;;;;;;14.70;13.50;;;;;;;8.72;100.00;97484.88;5039740;28;20200;-58
2022/05/07 03:40:33;;;;;;;16.50;14.70;;;;;;;8.66;100.00;97481.91;5025382;28;20298;-60
2022/05/07 03:43:03;;;;;;;16.57;15.03;;;;;;;8.73;100.00;97483.88;5019099;28;20324;-59
2022/05/07 03:45:31;;;;;;;14.90;13.60;;;;;;;8.71;100.00;97481.38;5026013;28;20592;-60
2022/05/07 03:48:00;;;;;;;14.93;13.60;;;;;;;8.67;100.00;97480.91;5043278;28;20199;-56
2022/05/07 03:50:28;;;;;;;14.23;13.03;;;;;;;8.63;100.00;97479.59;4988175;28;20642;-60
2022/05/07 03:55:51;;;;;;;14.23;13.13;;;;;;;8.68;100.00;97487.84;5000193;28;20838;-60
2022/05/07 03:58:19;;;;;;;15.30;14.00;;;;;;;8.73;100.00;97494.44;4979181;28;20216;-59
2022/05/07 04:00:47;;;;;;;17.63;16.13;;;;;;;8.78;100.00;97484.19;4991061;28;20558;-57
2022/05/07 04:03:15;;;;;;;17.38;16.08;;;;;;;8.85;100.00;97494.94;4999544;28;20453;-58
2022/05/07 04:05:43;;;;;;;14.57;13.37;;;;;;;8.91;100.00;97495.13;4943315;28;20751;-59
2022/05/07 04:08:13;;;;;;;15.48;14.18;;;;;;;8.95;100.00;97495.59;5001091;28;20450;-60
2022/05/07 04:10:42;;;;;;;14.27;13.07;;;;;;;9.01;100.00;97494.94;4986648;28;20351;-57
2022/05/07 04:13:10;;;;;;;13.90;12.80;;;;;;;9.07;100.00;97496.09;4985188;28;20733;-60
2022/05/07 04:15:39;;;;;;;14.33;13.13;;;;;;;9.11;100.00;97494.75;4985219;28;20307;-58
2022/05/07 04:18:07;;;;;;;12.70;11.70;;;;;;;9.07;100.00;97501.38;5003184;28;20204;-57
2022/05/07 04:20:36;;;;;;;13.30;12.13;;;;;;;9.11;100.00;97500.06;4962179;28;20820;-60
2022/05/07 04:23:04;;;;;;;13.87;12.70;;;;;;;9.16;100.00;97510.94;4981044;28;20742;-54
2022/05/07 04:25:40;;;;;;;13.17;11.87;;;;;;;9.24;100.00;97508.28;4983658;28;20487;-58
2022/05/07 04:28:09;;;;;;;12.33;11.23;;;;;;;9.23;100.00;97517.22;4973869;28;20694;-59
2022/05/07 04:30:37;;;;;;;13.37;12.27;;;;;;;9.32;100.00;97512.75;4980383;28;21115;-59
2022/05/07 04:33:06;;;;;;;13.43;12.33;;;;;;;9.27;100.00;97513.25;5029986;28;20544;-57
2022/05/07 04:35:35;;;;;;;12.00;11.20;;;;;;;9.30;100.00;97520.03;5030228;28;20436;-59
2022/05/07 04:38:03;;;;;;;11.30;10.30;;;;;;;9.31;100.00;97516.38;5006317;28;20217;-58
2022/05/07 04:40:31;;;;;;;12.23;11.33;;;;;;;9.35;100.00;97517.69;5035202;28;20867;-56
2022/05/07 04:43:00;;;;;;;12.83;11.67;;;;;;;9.34;100.00;97523.97;5030709;28;20199;-56
2022/05/07 04:45:28;;;;;;;12.17;11.23;;;;;;;9.38;100.00;97527.94;5023795;28;20208;-58
2022/05/07 04:47:56;;;;;;;11.87;10.87;;;;;;;9.48;100.00;97524.31;5032547;28;20674;-60
2022/05/07 04:50:24;;;;;;;11.57;10.67;;;;;;;9.56;100.00;97527.72;5025470;28;20203;-56
2022/05/07 04:52:52;;;;;;;12.03;11.03;;;;;;;9.66;100.00;97529.34;4966487;28;20849;-62
2022/05/07 04:55:20;;;;;;;12.93;11.70;;;;;;;9.59;100.00;97529.22;5037843;28;20293;-52
2022/05/07 04:57:48;;;;;;;11.73;10.83;;;;;;;9.65;100.00;97525.06;5020588;28;20212;-59
2022/05/07 05:00:18;;;;;;;10.53;9.73;;;;;;;9.66;100.00;97524.91;5026575;28;20204;-56
2022/05/07 05:02:47;;;;;;;11.33;10.33;;;;;;;9.81;100.00;97532.13;5031048;28;20230;-58
2022/05/07 05:05:15;;;;;;;11.57;10.67;;;;;;;9.81;100.00;97529.47;5029727;28;20314;-51
2022/05/07 05:07:44;;;;;;;10.63;9.83;;;;;;;9.84;100.00;97537.91;5012339;28;20215;-59
2022/05/07 05:10:18;;;;;;;11.63;10.63;;;;;;;9.89;100.00;97533.94;5034536;28;20199;-58
2022/05/07 05:12:46;;;;;;;10.47;9.67;;;;;;;9.97;100.00;97537.38;5021440;28;20235;-58
2022/05/07 05:15:14;;;;;;;10.50;9.70;;;;;;;9.95;100.00;97536.72;5019808;28;20211;-54
2022/05/07 05:17:43;;;;;;;11.90;11.00;;;;;;;10.02;100.00;97544.78;5027254;28;20200;-53
2022/05/07 05:20:12;;;;;;;12.03;11.03;;;;;;;10.19;100.00;97540.25;5030123;28;20691;-59
2022/05/07 05:22:46;;;;;;;11.17;10.20;;;;;;;10.30;100.00;97541.69;5006064;28;24421;-60
2022/05/07 05:25:14;;;;;;;11.93;11.00;;;;;;;10.45;100.00;97541.00;5041864;28;20204;-54
2022/05/07 05:27:42;;;;;;;11.87;10.77;;;;;;;10.60;100.00;97541.91;5025472;28;20236;-60
2022/05/07 05:30:11;;;;;;;11.70;10.70;;;;;;;10.66;100.00;97550.97;5025709;28;20207;-56
2022/05/07 05:32:39;;;;;;;9.97;9.27;;;;;;;10.73;100.00;97543.13;5037249;28;20196;-58
2022/05/07 05:35:09;;;;;;;10.57;9.77;;;;;;;10.80;100.00;97558.16;5027535;28;20762;-57
2022/05/07 05:37:38;;;;;;;11.20;10.40;;;;;;;10.68;100.00;97555.09;4996800;28;20985;-58
2022/05/07 05:40:07;;;;;;;10.53;9.73;;;;;;;10.62;100.00;97555.00;5033789;28;20203;-57
2022/05/07 05:42:35;;;;;;;9.90;9.20;;;;;;;10.58;100.00;97551.84;5019893;28;20238;-60
2022/05/07 05:45:04;;;;;;;10.03;9.33;;;;;;;10.61;100.00;97561.28;5033857;28;20349;-54
2022/05/07 05:47:32;;;;;;;10.20;9.20;;;;;;;10.71;100.00;97559.22;5009839;28;20217;-59
2022/05/07 05:50:01;;;;;;;10.93;10.07;;;;;;;10.75;100.00;97559.69;5028410;28;20666;-56
2022/05/07 05:52:32;;;;;;;10.33;9.30;;;;;;;10.74;100.00;97558.88;5020728;28;20227;-59
2022/05/07 05:55:00;;;;;;;10.87;9.97;;;;;;;10.81;100.00;97564.31;5007387;28;20211;-58
2022/05/07 05:57:28;;;;;;;10.67;9.90;;;;;;;10.91;100.00;97564.06;5034867;28;21023;-58
2022/05/07 05:59:56;;;;;;;10.10;9.30;;;;;;;10.99;100.00;97566.66;5034417;28;20207;-56
2022/05/07 06:02:25;;;;;;;10.43;9.50;;;;;;;11.10;100.00;97560.09;5013135;28;20238;-60
2022/05/07 06:04:53;;;;;;;10.97;10.07;;;;;;;11.04;100.00;97568.78;5034437;28;20207;-61
2022/05/07 06:07:21;;;;;;;10.80;10.00;;;;;;;11.18;100.00;97567.16;5013306;28;20535;-59
2022/05/07 06:09:51;;;;;;;9.90;9.20;;;;;;;11.30;100.00;97563.06;5005786;28;21651;-56
2022/05/07 06:12:19;;;;;;;11.83;10.63;;;;;;;11.33;100.00;97573.34;5041726;28;20227;-60
2022/05/07 06:14:47;;;;;;;10.73;9.83;;;;;;;11.27;100.00;97572.25;5037622;28;20229;-57
2022/05/07 06:17:15;;;;;;;9.03;8.33;;;;;;;11.38;100.00;97568.34;5034945;28;20206;-60
2022/05/07 06:19:43;;;;;;;9.80;9.00;;;;;;;11.58;100.00;97568.66;5038340;28;20437;-57
2022/05/07 06:22:11;;;;;;;9.60;8.77;;;;;;;11.68;100.00;97567.56;5024282;28;20753;-56
2022/05/07 06:27:31;;;;;;;9.47;8.67;;;;;;;11.81;100.00;97559.78;5005868;28;20326;-61
2022/05/07 06:29:59;;;;;;;9.10;8.17;;;;;;;12.01;100.00;97568.03;5042818;28;20210;-53
2022/05/07 06:32:32;;;;;;;9.83;9.13;;;;;;;12.06;100.00;97567.50;5014473;28;20258;-60
2022/05/07 06:35:03;;;;;;;8.70;7.97;;;;;;;12.22;100.00;97560.34;5039941;28;20370;-56
2022/05/07 06:37:31;;;;;;;8.87;8.17;;;;;;;12.19;100.00;97568.69;5016895;28;20333;-59
2022/05/07 06:39:59;;;;;;;9.10;8.33;;;;;;;12.12;100.00;97576.56;5041192;28;20207;-57
2022/05/07 06:42:30;;;;;;;8.77;8.07;;;;;;;12.16;100.00;97572.53;5003473;28;20231;-56
2022/05/07 06:44:58;;;;;;;9.40;8.57;;;;;;;12.11;100.00;97570.44;5041575;28;20416;-60
2022/05/07 06:47:31;;;;;;;9.93;9.10;;;;;;;11.97;100.00;97568.59;5027070;28;20211;-59
2022/05/07 06:50:01;;;;;;;8.87;8.17;;;;;;;11.94;100.00;97564.44;5040608;28;20200;-55
2022/05/07 06:52:30;;;;;;;8.70;8.10;;;;;;;12.13;100.00;97579.03;5018678;28;20267;-59
2022/05/07 06:54:58;;;;;;;8.43;7.73;;;;;;;12.20;100.00;97572.97;5042495;28;20726;-56
2022/05/07 06:57:27;;;;;;;9.30;8.50;;;;;;;12.18;100.00;97575.84;5022929;28;20575;-59
2022/05/07 06:59:56;;;;;;;10.20;9.13;;;;;;;12.36;100.00;97577.25;5036886;28;20579;-57
2022/05/07 07:02:25;;;;;;;8.47;7.87;;;;;;;12.46;100.00;97577.78;5039261;28;20281;-60
2022/05/07 07:04:53;;;;;;;8.20;7.70;;;;;;;12.50;100.00;97580.91;5025500;28;20207;-58
2022/05/07 07:07:25;;;;;;;9.33;8.63;;;;;;;12.42;100.00;97582.66;5033421;28;21436;-58
2022/05/07 07:09:53;;;;;;;8.50;7.90;;;;;;;12.37;100.00;97581.56;5033007;28;20211;-57
2022/05/07 07:12:22;;;;;;;9.17;8.23;;;;;;;12.63;100.00;97593.53;5040475;28;20347;-58
2022/05/07 07:15:03;;;;;;;8.17;7.57;;;;;;;12.91;100.00;97575.00;5009947;28;20218;-58
2022/05/07 07:17:32;;;;;;;9.80;8.90;;;;;;;12.91;100.00;97579.53;5037835;28;20204;-59
2022/05/07 07:20:00;;;;;;;9.70;8.73;;;;;;;12.93;100.00;97580.97;5026289;28;20823;-53
2022/05/07 07:22:29;;;;;;;9.63;8.60;;;;;;;12.80;100.00;97572.88;5025769;28;20681;-58
2022/05/07 07:24:57;;;;;;;9.10;8.30;;;;;;;12.84;100.00;97574.13;5026682;28;20673;-55
2022/05/07 07:27:27;;;;;;;8.50;7.90;;;;;;;13.10;100.00;97573.56;5039094;28;20312;-56
2022/05/07 07:29:55;;;;;;;8.47;7.87;;;;;;;13.06;100.00;97571.47;5003068;28;20207;-56
2022/05/07 07:32:25;;;;;;;8.57;7.97;;;;;;;13.42;100.00;97568.75;5041862;28;20344;-55
2022/05/07 07:34:53;;;;;;;8.60;7.70;;;;;;;13.54;100.00;97578.88;5025863;28;20223;-57
2022/05/07 07:37:22;;;;;;;8.40;7.60;;;;;;;13.94;100.00;97576.47;5044204;28;20272;-59
2022/05/07 07:39:50;;;;;;;8.13;7.43;;;;;;;14.12;100.00;97575.16;5024088;28;20214;-53
2022/05/07 07:42:20;;;;;;;9.13;8.23;;;;;;;13.98;100.00;97574.25;5025454;28;20285;-59
2022/05/07 07:47:56;;;;;;;8.47;7.77;;;;;;;14.18;100.00;97575.16;5041602;28;20343;-54
2022/05/07 07:50:21;;;;;;;8.60;7.80;;;;;;;14.29;100.00;97575.63;5026412;28;20207;-59
2022/05/07 07:52:52;;;;;;;8.37;7.77;;;;;;;14.37;100.00;97571.97;5016081;28;22376;-61
2022/05/07 07:59:07;;;;;;;8.23;7.57;;;;;;;15.09;100.00;97579.59;5009841;28;21028;-58
2022/05/07 08:01:35;;;;;;;8.57;7.73;;;;;;;14.87;100.00;97582.41;5006062;28;20229;-55
2022/05/07 08:04:05;;;;;;;8.90;8.10;;;;;;;14.74;100.00;97573.38;5016855;28;20285;-58
2022/05/07 08:06:33;;;;;;;9.67;8.67;;;;;;;14.88;100.00;97576.06;5028122;28;20221;-58
2022/05/07 08:11:49;;;;;;;8.50;7.70;;;;;;;15.10;100.00;97573.22;5027170;28;20231;-57
2022/05/07 08:14:17;;;;;;;9.30;8.50;;;;;;;15.22;100.00;97576.94;5044421;28;20216;-55
2022/05/07 08:16:45;;;;;;;9.50;8.60;;;;;;;15.25;100.00;97568.50;5009594;28;20651;-57
2022/05/07 08:19:16;;;;;;;9.67;8.67;;;;;;;15.15;100.00;97570.78;5046342;28;20213;-56
2022/05/07 08:21:44;;;;;;;9.20;8.50;;;;;;;15.08;100.00;97575.28;5027271;28;20226;-55
2022/05/07 08:24:13;;;;;;;8.87;8.17;;;;;;;15.19;100.00;97566.66;5029535;28;20214;-58
2022/05/07 08:26:41;;;;;;;9.07;8.27;;;;;;;15.59;100.00;97573.88;5027508;28;20346;-56
2022/05/07 08:29:09;;;;;;;8.90;8.17;;;;;;;16.40;100.00;97571.84;5040152;28;20234;-56
2022/05/07 08:31:37;;;;;;;9.20;8.40;;;;;;;16.90;100.00;97568.50;5037939;28;20248;-59
2022/05/07 08:34:05;;;;;;;8.43;7.70;;;;;;;17.30;100.00;97567.47;5008584;28;20241;-59
2022/05/07 08:36:35;;;;;;;8.27;7.57;;;;;;;17.47;100.00;97569.56;5019539;28;20210;-61
2022/05/07 08:39:03;;;;;;;8.67;7.97;;;;;;;17.46;100.00;97568.78;5030947;28;20204;-56
2022/05/07 08:41:31;;;;;;;8.37;7.70;;;;;;;17.23;100.00;97564.00;5012785;28;20232;-59
2022/05/07 08:43:59;;;;;;;8.17;7.37;;;;;;;16.88;100.00;97561.75;5039494;28;20204;-58
2022/05/07 08:46:28;;;;;;;8.00;7.30;;;;;;;17.03;100.00;97556.09;5036558;28;20206;-59
2022/05/07 08:48:56;;;;;;;7.33;6.73;;;;;;;17.09;100.00;97570.47;5008878;28;20894;-59
2022/05/07 08:51:24;;;;;;;8.53;7.80;;;;;;;17.42;100.00;97566.75;5043018;28;20261;-61
2022/05/07 08:53:55;;;;;;;8.23;7.63;;;;;;;17.24;100.00;97564.81;5006348;28;20200;-64
2022/05/07 08:56:25;;;;;;;7.77;7.17;;;;;;;17.38;100.00;97561.00;5030677;28;20441;-59
2022/05/07 08:58:55;;;;;;;9.30;8.40;;;;;;;17.95;100.00;97565.44;5037663;28;20199;-63
2022/05/07 09:01:23;;;;;;;7.90;7.30;;;;;;;18.16;100.00;97555.31;5042292;28;20222;-61
2022/05/07 09:03:51;;;;;;;9.17;8.30;;;;;;;17.65;100.00;97560.78;5009991;28;21458;-56
2022/05/07 09:06:22;;;;;;;7.97;7.43;;;;;;;18.06;100.00;97553.19;5036496;28;20846;-59
2022/05/07 09:08:51;;;;;;;8.30;7.57;;;;;;;17.89;100.00;97553.72;5012790;28;21381;-57
2022/05/07 09:11:21;;;;;;;8.80;8.00;;;;;;;17.90;100.00;97552.69;5029232;28;20744;-58
2022/05/07 09:14:00;;;;;;;9.23;8.43;;;;;;;17.99;100.00;97555.91;5026238;28;20288;-57
2022/05/07 09:16:40;;;;;;;8.03;7.37;;;;;;;17.94;100.00;97548.50;5048108;28;20227;-61
2022/05/07 09:19:23;;;;;;;8.33;7.60;;;;;;;18.26;100.00;97536.88;5041278;28;20203;-56
2022/05/07 09:21:54;;;;;;;7.77;7.17;;;;;;;18.07;100.00;97544.09;4995938;28;20227;-57
2022/05/07 09:24:22;;;;;;;7.67;7.00;;;;;;;18.44;100.00;97541.38;5007573;28;20297;-59
2022/05/07 09:26:52;;;;;;;11.63;8.33;;;;;;;18.88;100.00;97546.56;5020358;28;20223;-58
2022/05/07 09:29:20;;;;;;;8.90;8.03;;;;;;;18.79;100.00;97548.78;5017144;28;20207;-59
2022/05/07 09:31:48;;;;;;;7.67;7.10;;;;;;;18.79;100.00;97546.09;5031446;28;20227;-60
2022/05/07 09:37:13;;;;;;;8.37;7.67;;;;;;;18.96;100.00;97550.78;5002764;28;20299;-57
2022/05/07 09:39:46;;;;;;;9.03;8.23;;;;;;;19.19;100.00;97547.38;5025989;28;23961;-54
2022/05/07 09:42:16;;;;;;;7.97;7.27;;;;;;;19.55;100.00;97547.44;5014912;28;20301;-59
2022/05/07 09:44:45;;;;;;;8.17;7.37;;;;;;;20.07;100.00;97540.53;5040620;28;20212;-54
2022/05/07 09:47:13;;;;;;;7.87;7.07;;;;;;;19.90;95.01;97543.09;5044583;28;20308;-58
2022/05/07 09:50:20;;;;;;;7.93;7.17;;;;;;;19.72;97.57;97538.66;5029191;28;20940;-59
2022/05/07 09:52:31;;;;;;;8.37;7.57;;;;;;;19.31;94.66;97544.72;5009016;28;20227;-57
2022/05/07 09:57:47;;;;;;;11.63;8.67;;;;;;;19.41;99.11;97537.94;5028565;28;20224;-54
2022/05/07 10:00:19;;;;;;;12.70;8.73;;;;;;;19.59;99.74;97531.63;5039503;28;21758;-58
2022/05/07 10:02:59;;;;;;;10.37;8.40;;;;;;;19.80;98.39;97540.97;5045821;28;20203;-60
2022/05/07 10:05:44;;;;;;;9.77;8.90;;;;;;;19.84;99.06;97539.44;5021989;28;20207;-57
2022/05/07 10:08:42;;;;;;;8.88;8.18;;;;;;;20.06;100.00;97541.56;5008600;28;21142;-59
2022/05/07 10:11:11;;;;;;;9.10;8.40;;;;;;;20.39;91.97;97527.44;5021681;28;20227;-60
2022/05/07 10:13:40;;;;;;;8.63;7.97;;;;;;;20.49;96.26;97524.13;5019107;28;20360;-59
2022/05/07 10:16:10;;;;;;;8.77;8.07;;;;;;;20.44;90.84;97526.72;5038518;28;20228;-59
2022/05/07 10:18:41;;;;;;;9.07;8.37;;;;;;;20.28;89.99;97531.00;5041191;28;20207;-58
2022/05/07 10:21:13;;;;;;;9.20;7.67;;;;;;;20.28;91.90;97531.00;5023160;28;20997;-59
2022/05/07 10:23:52;;;;;;;10.17;9.43;;;;;;;20.56;93.50;97529.38;5013028;28;20937;-57
2022/05/07 10:26:21;;;;;;;9.27;8.60;;;;;;;20.64;89.33;97522.78;4999711;28;21032;-58
2022/05/07 10:28:51;;;;;;;8.27;7.60;;;;;;;20.36;88.83;97521.75;5050058;28;20206;-54
2022/05/07 10:31:20;;;;;;;8.37;7.77;;;;;;;20.23;88.00;97520.94;5029568;28;20215;-56
2022/05/07 10:33:49;;;;;;;9.60;8.30;;;;;;;19.79;90.79;97517.84;5044500;28;20231;-59
2022/05/07 10:36:17;;;;;;;12.57;11.47;;;;;;;19.67;96.09;97518.69;5018630;28;20318;-55
2022/05/07 10:38:46;;;;;;;9.43;8.63;;;;;;;19.48;100.00;97509.91;5000458;28;20691;-60
2022/05/07 10:41:24;;;;;;;9.97;9.17;;;;;;;19.11;100.00;97517.34;5000710;28;20448;-59
2022/05/07 10:44:06;;;;;;;10.07;9.17;;;;;;;19.45;100.00;97512.25;5009894;28;20722;-59
2022/05/07 10:46:39;;;;;;;13.00;11.87;;;;;;;19.89;100.00;97515.41;5031111;28;20836;-58
2022/05/07 10:49:08;;;;;;;10.00;9.10;;;;;;;20.08;91.95;97507.19;5031313;28;20725;-56
2022/05/07 10:51:37;;;;;;;10.23;9.33;;;;;;;20.31;94.93;97516.25;5033319;28;20230;-57
2022/05/07 10:54:19;;;;;;;10.93;10.03;;;;;;;20.39;96.15;97507.81;4986471;28;20641;-58
2022/05/07 10:56:48;;;;;;;9.07;8.27;;;;;;;20.38;97.25;97508.88;5013648;28;20226;-57
2022/05/07 10:59:18;;;;;;;8.73;7.93;;;;;;;20.06;98.93;97514.69;5021725;28;20203;-56
2022/05/07 11:01:46;;;;;;;9.60;8.90;;;;;;;19.65;100.00;97514.56;5028971;28;20365;-60
2022/05/07 11:04:18;;;;;;;9.33;8.63;;;;;;;19.35;100.00;97513.66;5026908;28;20218;-58
2022/05/07 11:06:47;;;;;;;9.57;8.93;;;;;;;19.03;100.00;97507.78;5027570;28;20504;-54
2022/05/07 11:09:16;;;;;;;10.17;9.27;;;;;;;19.12;100.00;97508.22;5007855;28;20235;-59
2022/05/07 11:11:46;;;;;;;10.10;9.30;;;;;;;19.02;100.00;97509.63;5040920;28;20227;-60
2022/05/07 11:14:24;;;;;;;9.60;8.73;;;;;;;19.19;100.00;97508.97;5031920;28;20527;-56
2022/05/07 11:16:52;;;;;;;9.80;9.00;;;;;;;19.31;100.00;97511.66;5015195;28;20852;-56
2022/05/07 11:19:26;;;;;;;8.03;7.23;;;;;;;19.63;100.00;97512.13;5033485;28;20405;-57
2022/05/07 11:21:54;;;;;;;7.10;6.60;;;;;;;19.57;100.00;97512.25;5032760;28;20236;-58
2022/05/07 11:24:24;;;;;;;7.50;6.90;;;;;;;19.24;100.00;97515.25;5022528;28;20362;-58
2022/05/07 11:26:53;;;;;;;7.97;7.37;;;;;;;19.21;100.00;97509.56;5011706;28;20245;-60
2022/05/07 11:29:23;;;;;;;9.60;7.30;;;;;;;19.05;100.00;97506.47;5020576;28;20932;-56
2022/05/07 11:31:55;;;;;;;7.60;7.03;;;;;;;19.12;100.00;97502.88;5015063;28;20231;-60
2022/05/07 11:34:31;;;;;;;7.63;6.93;;;;;;;19.16;100.00;97514.81;5031493;28;20203;-59
2022/05/07 11:37:11;;;;;;;6.70;6.17;;;;;;;19.34;100.00;97501.25;5043340;28;20232;-54
2022/05/07 11:39:49;;;;;;;7.93;7.33;;;;;;;19.34;100.00;97498.56;5031716;28;20899;-56
2022/05/07 11:42:28;;;;;;;7.80;7.20;;;;;;;19.67;100.00;97507.09;4998969;28;20249;-58
2022/05/07 11:45:26;;;;;;;6.57;6.17;;;;;;;19.65;100.00;97504.66;5012189;28;20668;-59
2022/05/07 11:47:58;;;;;;;7.33;6.77;;;;;;;19.90;100.00;97510.81;5024082;28;20207;-56
2022/05/07 11:50:29;;;;;;;6.50;5.90;;;;;;;19.98;98.93;97509.69;5022573;28;20339;-57
2022/05/07 11:52:58;;;;;;;7.00;6.30;;;;;;;20.53;92.87;97501.06;5039851;28;20314;-57
2022/05/07 11:55:27;;;;;;;6.30;5.77;;;;;;;20.57;90.30;97504.09;5001072;28;20222;-59
2022/05/07 11:57:56;;;;;;;7.43;7.00;;;;;;;20.22;90.62;97500.47;4999052;28;20351;-60
2022/05/07 12:00:27;;;;;;;6.30;5.90;;;;;;;20.43;92.83;97500.88;5019304;28;20210;-53